Inner Beacon (Inner Reciprocal Marker) automatic weather station will be offline from 30 April 2019 for several months while the supporting marine navigation infrastructure is replaced. During this time please access nearby wind observations from Brisbane Airport and Spitfire Channel.

Latest Weather Observations for Inner Beacon

IDQ60901

Issued at 8:41 pm EST Wednesday 5 August 2020 (issued every 10 minutes, with the page automatically refreshed every 10 minutes)

About weather observations | Map of Brisbane area stations | Latest observations for Brisbane area | Other Formats
Station Details ID: 040926 Name: INNER RECIPROCAL MARKER Lat: -27.26 Lon: 153.24 Height: 10.0 m
Data from the previous 72 hours. | See also: Recent months at Inner Beacon
Date/Time
EST
Temp
°C
App
Temp
°C
Dew
Point
°C
Rel
Hum
%
Delta-T
°C
Wind Press
QNH
hPa
Press
MSL
hPa
Rain since
9am
mm
Dir  Spd
km/h
Gust
km/h
Spd
kts
Gust
kts
05/08:30pm - - - - - N 17 20 9 11 - - -
05/08:00pm - - - - - N 19 22 10 12 - - -
05/07:30pm - - - - - N 19 20 10 11 - - -
05/07:00pm - - - - - N 20 24 11 13 - - -
05/06:30pm - - - - - N 22 26 12 14 - - -
05/06:00pm - - - - - NNE 24 28 13 15 - - -
05/05:30pm - - - - - N 20 26 11 14 - - -
05/05:00pm - - - - - NNE 24 26 13 14 - - -
05/04:30pm - - - - - NNE 22 28 12 15 - - -
05/04:00pm - - - - - NNE 22 24 12 13 - - -
05/03:30pm - - - - - NNE 22 26 12 14 - - -
05/03:00pm - - - - - NNE 24 28 13 15 - - -
05/02:30pm - - - - - NNE 19 20 10 11 - - -
05/02:00pm - - - - - NNE 19 20 10 11 - - -
05/01:30pm - - - - - NNE 19 22 10 12 - - -
05/01:00pm - - - - - NNE 17 19 9 10 - - -
05/12:30pm - - - - - NNE 13 17 7 9 - - -
05/12:00pm - - - - - N 11 13 6 7 - - -
05/11:30am - - - - - N 7 9 4 5 - - -
05/11:00am - - - - - CALM 0 0 0 0 - - -
05/10:30am - - - - - CALM 0 0 0 0 - - -
05/10:00am - - - - - CALM 0 0 0 0 - - -
05/09:30am - - - - - WSW 4 6 2 3 - - -
05/09:00am - - - - - W 4 6 2 3 - - -
05/08:30am - - - - - SW 6 6 3 3 - - -
05/08:00am - - - - - SW 7 7 4 4 - - -
05/07:30am - - - - - WSW 7 7 4 4 - - -
05/07:00am - - - - - WSW 7 9 4 5 - - -
05/06:30am - - - - - W 7 11 4 6 - - -
05/06:00am - - - - - N 15 17 8 9 - - -
05/05:30am - - - - - N 17 19 9 10 - - -
05/05:00am - - - - - N 17 17 9 9 - - -
05/04:30am - - - - - N 17 19 9 10 - - -
05/04:00am - - - - - N 17 20 9 11 - - -
05/03:30am - - - - - NNW 19 20 10 11 - - -
05/03:00am - - - - - NNW 20 24 11 13 - - -
05/02:30am - - - - - NNW 22 26 12 14 - - -
05/02:00am - - - - - NNW 24 28 13 15 - - -
05/01:30am - - - - - NNW 22 28 12 15 - - -
05/01:00am - - - - - NNW 24 28 13 15 - - -
05/12:30am - - - - - N 24 28 13 15 - - -
05/12:00am - - - - - N 22 26 12 14 - - -
 
Date/Time
EST
Temp
°C
App
Temp
°C
Dew
Point
°C
Rel
Hum
%
Delta-T
°C
Wind Press
QNH
hPa
Press
MSL
hPa
Rain since
9am
mm
Dir  Spd
km/h
Gust
km/h
Spd
kts
Gust
kts
04/11:30pm - - - - - NNW 20 24 11 13 - - -
04/11:00pm - - - - - NNW 19 22 10 12 - - -
04/10:30pm - - - - - NNW 19 22 10 12 - - -
04/10:00pm - - - - - NNW 19 20 10 11 - - -
04/09:30pm - - - - - NNW 19 20 10 11 - - -
04/09:00pm - - - - - N 20 24 11 13 - - -
04/08:30pm - - - - - N 22 26 12 14 - - -
04/08:00pm - - - - - N 22 24 12 13 - - -
04/07:30pm - - - - - N 22 24 12 13 - - -
04/07:00pm - - - - - N 20 24 11 13 - - -
04/06:30pm - - - - - N 20 24 11 13 - - -
04/06:00pm - - - - - N 19 22 10 12 - - -
04/05:30pm - - - - - N 20 22 11 12 - - -
04/05:00pm - - - - - NNE 19 22 10 12 - - -
04/04:30pm - - - - - N 20 24 11 13 - - -
04/04:00pm - - - - - N 24 26 13 14 - - -
04/03:30pm - - - - - N 20 24 11 13 - - -
04/03:00pm - - - - - N 19 22 10 12 - - -
04/02:30pm - - - - - NNE 13 15 7 8 - - -
04/02:00pm - - - - - NNE 11 13 6 7 - - -
04/01:30pm - - - - - NNE 9 9 5 5 - - -
04/01:00pm - - - - - NE 7 9 4 5 - - -
04/12:30pm - - - - - N 6 6 3 3 - - -
04/12:00pm - - - - - CALM 0 0 0 0 - - -
04/11:30am - - - - - CALM 0 0 0 0 - - -
04/11:00am - - - - - SW 6 7 3 4 - - -
04/10:30am - - - - - SW 6 7 3 4 - - -
04/10:00am - - - - - SSW 4 4 2 2 - - -
04/09:30am - - - - - S 6 7 3 4 - - -
04/09:00am - - - - - S 7 9 4 5 - - -
04/08:30am - - - - - S 6 7 3 4 - - -
04/08:00am - - - - - SSW 6 9 3 5 - - -
04/07:30am - - - - - SW 7 11 4 6 - - -
04/07:00am - - - - - SW 9 13 5 7 - - -
04/06:30am - - - - - SSW 2 7 1 4 - - -
04/06:00am - - - - - CALM 0 0 0 0 - - -
04/05:30am - - - - - SSW 4 6 2 3 - - -
04/05:00am - - - - - SW 4 6 2 3 - - -
04/04:30am - - - - - SW 7 7 4 4 - - -
04/04:00am - - - - - SW 9 11 5 6 - - -
04/03:30am - - - - - SSW 9 11 5 6 - - -
04/03:00am - - - - - SW 11 13 6 7 - - -
04/02:30am - - - - - SW 11 13 6 7 - - -
04/02:00am - - - - - SSW 9 9 5 5 - - -
04/01:30am - - - - - SSW 9 9 5 5 - - -
04/01:00am - - - - - SW 11 13 6 7 - - -
04/12:30am - - - - - WSW 9 11 5 6 - - -
04/12:00am - - - - - WSW 9 9 5 5 - - -
 
Date/Time
EST
Temp
°C
App
Temp
°C
Dew
Point
°C
Rel
Hum
%
Delta-T
°C
Wind Press
QNH
hPa
Press
MSL
hPa
Rain since
9am
mm
Dir  Spd
km/h
Gust
km/h
Spd
kts
Gust
kts
03/11:30pm - - - - - W 9 9 5 5 - - -
03/11:00pm - - - - - WNW 7 9 4 5 - - -
03/10:30pm - - - - - NW 7 9 4 5 - - -
03/10:00pm - - - - - N 9 13 5 7 - - -
03/09:30pm - - - - - NNE 13 15 7 8 - - -
03/09:00pm - - - - - NE 13 15 7 8 - - -
03/08:30pm - - - - - NNE 7 9 4 5 - - -
03/08:00pm - - - - - NNE 6 7 3 4 - - -
03/07:30pm - - - - - NE 9 9 5 5 - - -
03/07:00pm - - - - - NNE 9 11 5 6 - - -
03/06:30pm - - - - - NNE 9 11 5 6 - - -
03/06:00pm - - - - - NE 9 11 5 6 - - -
03/05:30pm - - - - - NE 11 11 6 6 - - -
03/05:00pm - - - - - NNE 13 15 7 8 - - -
03/04:30pm - - - - - NE 13 13 7 7 - - -
03/04:00pm - - - - - NNE 11 13 6 7 - - -
03/03:30pm - - - - - NE 11 13 6 7 - - -
03/03:00pm - - - - - NE 9 11 5 6 - - -
03/02:30pm - - - - - ESE 9 13 5 7 - - -
03/02:00pm - - - - - ESE 11 13 6 7 - - -
03/01:30pm - - - - - ESE 11 13 6 7 - - -
03/01:00pm - - - - - S 9 9 5 5 - - -
03/12:30pm - - - - - S 9 11 5 6 - - -
03/12:00pm - - - - - S 11 13 6 7 - - -
03/11:30am - - - - - S 13 15 7 8 - - -
03/11:00am - - - - - SSW 13 15 7 8 - - -
03/10:30am - - - - - SSW 17 19 9 10 - - -
03/10:00am - - - - - SSW 20 24 11 13 - - -
03/09:30am - - - - - SSW 20 22 11 12 - - -
03/09:00am - - - - - S 20 24 11 13 - - -
03/08:30am - - - - - S 20 24 11 13 - - -
03/08:00am - - - - - SSW 19 20 10 11 - - -
03/07:30am - - - - - SSW 19 22 10 12 - - -
03/07:00am - - - - - SSW 13 15 7 8 - - -
03/06:30am - - - - - SSW 13 17 7 9 - - -
03/06:00am - - - - - SSW 11 15 6 8 - - -
03/05:30am - - - - - SW 9 13 5 7 - - -
03/05:00am - - - - - SW 9 13 5 7 - - -
03/04:30am - - - - - SSW 15 17 8 9 - - -
03/04:00am - - - - - SSW 15 17 8 9 - - -
03/03:30am - - - - - SW 11 13 6 7 - - -
03/03:00am - - - - - SSW 11 13 6 7 - - -
03/02:30am - - - - - SW 11 13 6 7 - - -
03/02:00am - - - - - SSW 13 13 7 7 - - -
03/01:30am - - - - - SW 13 15 7 8 - - -
03/01:00am - - - - - SW 13 13 7 7 - - -
03/12:30am - - - - - SW 11 13 6 7 - - -
03/12:00am - - - - - WSW 11 13 6 7 - - -
 
Date/Time
EST
Temp
°C
App
Temp
°C
Dew
Point
°C
Rel
Hum
%
Delta-T
°C
Wind Press
QNH
hPa
Press
MSL
hPa
Rain since
9am
mm
Dir  Spd
km/h
Gust
km/h
Spd
kts
Gust
kts
02/11:30pm - - - - - WSW 11 11 6 6 - - -
02/11:00pm - - - - - SW 9 11 5 6 - - -
02/10:30pm - - - - - WSW 7 9 4 5 - - -
02/10:00pm - - - - - WSW 6 7 3 4 - - -
02/09:30pm - - - - - CALM 0 0 0 0 - - -
02/09:00pm - - - - - CALM 0 0 0 0 - - -

Latest Capital City Observations: Canberra | Sydney | Melbourne | Brisbane | Adelaide | Perth | Hobart | Darwin

Other formats

Comma delimited format used in spreadsheet applications
http://www.bom.gov.au/fwo/IDQ60901/IDQ60901.94590.axf

JavaScript Object Notation format (JSON) in row-major order
http://www.bom.gov.au/fwo/IDQ60901/IDQ60901.94590.json

Data quality

Most of these data are generated automatically and are frequently updated. Quality checks on data are not normally performed. It is possible for incorrect values to appear. Refer to information at About Latest Weather Observations and please check the disclaimer before using these data.